createdAt,value
2018-03-22T00:00:17.337Z,85.57
2018-03-22T00:02:45.341Z,85.36
2018-03-22T00:05:13.532Z,85.57
2018-03-22T00:07:41.572Z,85.57
2018-03-22T00:10:09.593Z,84.62
2018-03-22T00:12:37.733Z,84.61
2018-03-22T00:15:05.702Z,84.53
2018-03-22T00:17:33.728Z,84.71
2018-03-22T00:20:01.706Z,85.02
2018-03-22T00:22:38.571Z,85.22
2018-03-22T00:25:07.560Z,85.00
2018-03-22T00:27:35.522Z,85.13
2018-03-22T00:30:03.427Z,84.73
2018-03-22T00:32:31.365Z,85.42
2018-03-22T00:34:59.329Z,85.37
2018-03-22T00:37:27.273Z,85.26
2018-03-22T00:39:55.230Z,84.72
2018-03-22T00:42:23.337Z,84.08
2018-03-22T00:44:51.723Z,84.66
2018-03-22T00:47:19.651Z,84.42
2018-03-22T00:49:47.611Z,84.27
2018-03-22T00:52:15.570Z,85.01
2018-03-22T00:54:43.565Z,85.05
2018-03-22T00:57:11.545Z,84.94
2018-03-22T00:59:39.544Z,84.95
2018-03-22T01:02:07.495Z,84.43
2018-03-22T01:04:35.474Z,84.35
2018-03-22T01:07:03.444Z,84.25
2018-03-22T01:09:31.421Z,83.78
2018-03-22T01:11:59.347Z,83.61
2018-03-22T01:14:27.388Z,83.42
2018-03-22T01:16:55.339Z,83.95
2018-03-22T01:19:23.329Z,84.12
2018-03-22T01:21:51.266Z,83.22
2018-03-22T01:24:19.198Z,84.02
2018-03-22T01:26:47.176Z,83.95
2018-03-22T01:29:15.102Z,84.02
2018-03-22T01:31:43.069Z,84.47
2018-03-22T01:34:11.017Z,83.71
2018-03-22T01:36:38.972Z,84.00
2018-03-22T01:39:06.898Z,84.50
2018-03-22T01:41:34.829Z,84.95
2018-03-22T01:44:02.959Z,84.04
2018-03-22T01:46:30.908Z,84.97
2018-03-22T01:48:58.874Z,85.08
2018-03-22T01:51:26.808Z,84.70
2018-03-22T01:53:54.778Z,84.81
2018-03-22T01:56:22.747Z,84.61
2018-03-22T01:58:50.634Z,85.53
2018-03-22T02:01:18.578Z,84.87
2018-03-22T02:03:46.482Z,85.10
2018-03-22T02:06:14.422Z,84.42
2018-03-22T02:08:42.361Z,84.60
2018-03-22T02:11:10.312Z,83.99
2018-03-22T02:13:38.248Z,83.85
2018-03-22T02:16:06.202Z,84.52
2018-03-22T02:18:34.130Z,84.61
2018-03-22T02:21:02.051Z,84.22
2018-03-22T02:23:29.972Z,85.04
2018-03-22T02:25:57.901Z,84.51
2018-03-22T02:28:25.827Z,84.08
2018-03-22T02:30:53.769Z,83.24
2018-03-22T02:33:21.719Z,83.39
2018-03-22T02:35:49.659Z,83.39
2018-03-22T02:38:17.583Z,84.06
2018-03-22T02:40:45.526Z,83.87
2018-03-22T02:43:13.564Z,83.75
2018-03-22T02:45:41.515Z,82.58
2018-03-22T02:48:09.431Z,82.84
2018-03-22T02:50:37.412Z,82.27
2018-03-22T02:53:05.370Z,83.25
2018-03-22T02:55:33.341Z,83.73
2018-03-22T02:58:01.288Z,83.73
2018-03-22T03:00:29.344Z,84.22
2018-03-22T03:02:57.198Z,84.88
2018-03-22T03:05:25.182Z,84.82
2018-03-22T03:07:53.158Z,85.41
2018-03-22T03:10:21.083Z,85.66
2018-03-22T03:12:49.060Z,87.45
2018-03-22T03:15:16.999Z,87.96
2018-03-22T03:17:44.982Z,88.54
2018-03-22T03:20:12.945Z,89.52
2018-03-22T03:22:40.898Z,89.02
2018-03-22T03:25:09.598Z,89.54
2018-03-22T03:27:37.560Z,90.31
2018-03-22T03:30:05.510Z,90.53
2018-03-22T03:32:33.501Z,90.63
2018-03-22T03:35:01.467Z,90.74
2018-03-22T03:37:29.348Z,91.31
2018-03-22T03:39:57.277Z,91.65
2018-03-22T03:42:25.200Z,91.82
2018-03-22T03:44:53.322Z,92.00
2018-03-22T03:47:21.243Z,92.68
2018-03-22T03:49:49.152Z,92.65
2018-03-22T03:52:17.081Z,92.88
2018-03-22T03:54:45.034Z,92.79
2018-03-22T03:57:12.966Z,92.78
2018-03-22T03:59:40.864Z,92.95
2018-03-22T04:02:08.822Z,92.82
2018-03-22T04:04:36.748Z,92.68
2018-03-22T04:07:04.716Z,93.05
2018-03-22T04:09:32.641Z,92.88
2018-03-22T04:12:00.585Z,92.79
2018-03-22T04:14:28.505Z,92.79
2018-03-22T04:16:56.522Z,93.22
2018-03-22T04:19:24.462Z,92.83
2018-03-22T04:21:52.377Z,92.67
2018-03-22T04:24:20.325Z,93.30
2018-03-22T04:26:48.329Z,93.20
2018-03-22T04:29:16.211Z,93.04
2018-03-22T04:31:44.141Z,93.43
2018-03-22T04:34:12.074Z,93.12
2018-03-22T04:36:39.992Z,94.05
2018-03-22T04:39:07.942Z,93.98
2018-03-22T04:41:35.921Z,94.11
2018-03-22T04:44:03.856Z,94.46
2018-03-22T04:46:31.855Z,94.35
2018-03-22T04:48:59.825Z,94.75
2018-03-22T04:51:27.811Z,94.49
2018-03-22T04:53:55.782Z,95.15
2018-03-22T04:56:23.732Z,95.09
2018-03-22T04:58:51.702Z,95.26
2018-03-22T05:01:19.650Z,95.63
2018-03-22T05:03:47.609Z,95.84
2018-03-22T05:06:15.534Z,95.87
2018-03-22T05:08:43.479Z,96.16
2018-03-22T05:11:11.414Z,95.91
2018-03-22T05:13:39.734Z,95.56
2018-03-22T05:16:07.859Z,95.58
2018-03-22T05:18:35.818Z,95.27
2018-03-22T05:21:03.689Z,95.29
2018-03-22T05:23:31.668Z,95.24
2018-03-22T05:25:59.641Z,95.67
2018-03-22T05:28:27.579Z,95.91
2018-03-22T05:30:55.516Z,95.57
2018-03-22T05:33:23.465Z,95.75
2018-03-22T05:35:51.487Z,95.83
2018-03-22T05:38:19.410Z,95.85
2018-03-22T05:40:47.393Z,96.49
2018-03-22T05:43:15.334Z,96.83
2018-03-22T05:45:43.266Z,95.68
2018-03-22T05:48:11.217Z,96.32
2018-03-22T05:50:39.177Z,96.49
2018-03-22T05:53:07.167Z,96.49
2018-03-22T05:55:35.105Z,96.55
2018-03-22T05:58:03.084Z,96.30
2018-03-22T06:00:31.119Z,96.56
2018-03-22T06:02:59.048Z,95.88
2018-03-22T06:05:26.990Z,95.93
2018-03-22T06:07:54.964Z,96.54
2018-03-22T06:10:22.894Z,96.55
2018-03-22T06:12:50.830Z,96.65
2018-03-22T06:15:18.769Z,96.51
2018-03-22T06:17:46.747Z,96.38
2018-03-22T06:20:14.731Z,95.93
2018-03-22T06:22:42.756Z,95.93
2018-03-22T06:25:10.703Z,96.18
2018-03-22T06:27:38.714Z,95.94
2018-03-22T06:30:06.773Z,95.27
2018-03-22T06:32:34.738Z,95.53
2018-03-22T06:35:02.693Z,95.10
2018-03-22T06:37:30.608Z,95.55
2018-03-22T06:39:58.549Z,95.58
2018-03-22T06:42:26.497Z,95.28
2018-03-22T06:44:54.441Z,94.94
2018-03-22T06:47:22.359Z,95.59
2018-03-22T06:49:50.314Z,95.65
2018-03-22T06:52:18.246Z,95.67
2018-03-22T06:54:46.183Z,95.48
2018-03-22T06:57:14.125Z,95.39
2018-03-22T06:59:42.134Z,95.81
2018-03-22T07:02:10.068Z,95.51
2018-03-22T07:04:38.014Z,94.96
2018-03-22T07:07:05.980Z,95.04
2018-03-22T07:09:33.901Z,94.70
2018-03-22T07:12:01.848Z,95.23
2018-03-22T07:14:29.763Z,94.43
2018-03-22T07:16:57.787Z,94.79
2018-03-22T07:19:25.754Z,94.72
2018-03-22T07:21:53.701Z,95.15
2018-03-22T07:24:21.640Z,95.20
2018-03-22T07:26:49.584Z,94.83
2018-03-22T07:29:17.505Z,95.23
2018-03-22T07:31:45.453Z,95.04
2018-03-22T07:34:13.411Z,94.62
2018-03-22T07:36:41.369Z,94.20
2018-03-22T07:39:09.340Z,94.56
2018-03-22T07:41:37.310Z,94.30
2018-03-22T07:44:10.787Z,94.40
2018-03-22T07:46:38.747Z,94.87
2018-03-22T07:49:06.751Z,95.06
2018-03-22T07:51:34.685Z,95.26
2018-03-22T07:54:02.653Z,94.41
2018-03-22T07:56:30.875Z,95.02
2018-03-22T07:58:58.944Z,94.85
2018-03-22T08:01:27.519Z,94.98
2018-03-22T08:03:56.614Z,95.12
2018-03-22T08:06:25.642Z,95.43
2018-03-22T08:08:53.614Z,95.23
2018-03-22T08:11:21.703Z,95.57
2018-03-22T08:13:49.687Z,95.39
2018-03-22T08:16:17.618Z,95.36
2018-03-22T08:18:45.666Z,95.66
2018-03-22T08:21:13.611Z,95.46
2018-03-22T08:23:42.536Z,94.94
2018-03-22T08:26:10.519Z,95.39
2018-03-22T08:28:38.587Z,94.97
2018-03-22T08:31:07.223Z,95.43
2018-03-22T08:33:35.180Z,95.17
2018-03-22T08:36:03.191Z,95.17
2018-03-22T08:38:31.933Z,94.91
2018-03-22T08:40:59.923Z,95.07
2018-03-22T08:43:27.883Z,94.90
2018-03-22T08:45:55.841Z,95.01
2018-03-22T08:48:23.757Z,95.75
2018-03-22T08:50:52.652Z,95.07
2018-03-22T08:53:21.053Z,94.04
2018-03-22T08:55:49.021Z,94.40
2018-03-22T08:58:16.992Z,94.85
2018-03-22T09:00:44.922Z,95.57
2018-03-22T09:03:12.905Z,95.24
2018-03-22T09:05:40.852Z,95.63
2018-03-22T09:08:08.816Z,96.05
2018-03-22T09:10:36.752Z,95.27
2018-03-22T09:13:04.778Z,95.88
2018-03-22T09:15:32.783Z,95.87
2018-03-22T09:18:00.923Z,95.25
2018-03-22T09:20:28.956Z,94.94
2018-03-22T09:22:57.387Z,95.59
2018-03-22T09:25:25.447Z,95.26
2018-03-22T09:27:53.426Z,95.44
2018-03-22T09:30:21.349Z,95.15
2018-03-22T09:32:49.277Z,95.53
2018-03-22T09:35:17.590Z,95.29
2018-03-22T09:37:45.576Z,95.61
2018-03-22T09:40:13.590Z,94.87
2018-03-22T09:42:41.596Z,95.15
2018-03-22T09:45:09.565Z,94.27
2018-03-22T09:47:37.536Z,95.44
2018-03-22T09:50:05.474Z,95.59
2018-03-22T09:52:33.413Z,95.64
2018-03-22T09:55:01.451Z,95.39
2018-03-22T09:57:29.529Z,95.37
2018-03-22T09:59:57.450Z,94.62
2018-03-22T10:02:25.533Z,93.75
2018-03-22T10:04:53.465Z,94.80
2018-03-22T10:07:21.406Z,94.50
2018-03-22T10:09:49.400Z,94.65
2018-03-22T10:12:17.378Z,95.02
2018-03-22T10:14:45.543Z,94.24
2018-03-22T10:17:13.512Z,94.34
2018-03-22T10:19:41.461Z,94.08
2018-03-22T10:22:09.581Z,94.42
2018-03-22T10:24:37.673Z,94.46
2018-03-22T10:27:05.624Z,94.90
2018-03-22T10:29:33.668Z,94.43
2018-03-22T10:32:01.681Z,94.04
2018-03-22T10:34:29.677Z,93.87
2018-03-22T10:36:57.627Z,93.59
2018-03-22T10:39:25.576Z,92.98
2018-03-22T10:41:53.518Z,93.48
2018-03-22T10:44:21.455Z,93.14
2018-03-22T10:46:49.455Z,93.39
2018-03-22T10:49:17.405Z,92.65
2018-03-22T10:51:45.333Z,92.91
2018-03-22T10:54:13.333Z,93.13
2018-03-22T10:56:41.317Z,93.37
2018-03-22T10:59:09.285Z,92.55
2018-03-22T11:04:40.134Z,91.40
2018-03-22T11:07:08.085Z,91.47
2018-03-22T11:09:36.019Z,91.10
2018-03-22T11:12:04.037Z,91.56
2018-03-22T11:14:32.055Z,91.74
2018-03-22T11:17:00.042Z,92.18
2018-03-22T11:19:28.010Z,93.11
2018-03-22T11:21:56.036Z,92.69
2018-03-22T11:24:23.972Z,92.62
2018-03-22T11:26:51.945Z,92.80
2018-03-22T11:29:19.896Z,92.72
2018-03-22T11:31:48.084Z,93.04
2018-03-22T11:34:16.712Z,93.14
2018-03-22T11:36:44.676Z,93.71
2018-03-22T11:39:12.653Z,93.32
2018-03-22T11:41:41.237Z,93.75
2018-03-22T11:44:09.172Z,94.06
2018-03-22T11:46:37.257Z,93.88
2018-03-22T11:49:05.990Z,94.26
2018-03-22T11:51:34.352Z,94.45
2018-03-22T11:54:02.254Z,94.43
2018-03-22T11:56:30.279Z,94.21
2018-03-22T11:58:58.223Z,94.26
2018-03-22T12:01:26.135Z,94.56
2018-03-22T12:03:54.301Z,95.07
2018-03-22T12:06:22.268Z,95.07
2018-03-22T12:08:50.210Z,94.56
2018-03-22T12:11:18.388Z,94.68
2018-03-22T12:13:46.345Z,94.93
2018-03-22T12:16:14.452Z,94.75
2018-03-22T12:18:42.538Z,94.78
2018-03-22T12:21:10.676Z,94.66
2018-03-22T12:23:38.644Z,94.72
2018-03-22T12:26:06.588Z,94.54
2018-03-22T12:28:34.543Z,94.36
2018-03-22T12:31:03.128Z,94.46
2018-03-22T12:33:31.462Z,94.68
2018-03-22T12:35:59.672Z,94.19
2018-03-22T12:38:27.657Z,94.41
2018-03-22T12:40:55.598Z,94.48
2018-03-22T12:43:23.662Z,94.40
2018-03-22T12:45:51.516Z,94.21
2018-03-22T12:48:19.459Z,94.38
2018-03-22T12:50:47.474Z,94.50
2018-03-22T12:53:15.490Z,94.28
2018-03-22T12:55:43.470Z,94.28
2018-03-22T12:58:11.427Z,94.24
2018-03-22T13:00:39.380Z,94.45
2018-03-22T13:03:07.341Z,93.73
2018-03-22T13:05:35.329Z,94.52
2018-03-22T13:08:03.282Z,94.59
2018-03-22T13:10:31.249Z,95.26
2018-03-22T13:12:59.216Z,94.63
2018-03-22T13:15:27.107Z,94.75
2018-03-22T13:17:55.081Z,94.20
2018-03-22T13:20:23.029Z,94.42
2018-03-22T13:22:51.100Z,94.49
2018-03-22T13:25:19.047Z,94.14
2018-03-22T13:27:47.009Z,94.58
2018-03-22T13:30:15.013Z,94.85
2018-03-22T13:32:43.157Z,94.43
2018-03-22T13:35:11.393Z,94.23
2018-03-22T13:37:39.340Z,93.72
2018-03-22T13:40:07.525Z,93.95
2018-03-22T13:42:35.553Z,93.52
2018-03-22T13:45:03.599Z,93.28
2018-03-22T13:47:31.544Z,93.71
2018-03-22T13:49:59.560Z,93.72
2018-03-22T13:52:27.539Z,93.08
2018-03-22T13:54:55.510Z,92.62
2018-03-22T13:57:23.396Z,91.72
2018-03-22T13:59:51.584Z,90.67
2018-03-22T14:02:19.489Z,89.99
2018-03-22T14:04:47.433Z,90.20
2018-03-22T14:07:15.425Z,90.21
2018-03-22T14:09:43.322Z,89.70
2018-03-22T14:12:11.383Z,89.21
2018-03-22T14:14:39.331Z,87.56
2018-03-22T14:17:07.609Z,87.78
2018-03-22T14:19:35.632Z,88.51
2018-03-22T14:22:03.550Z,87.83
2018-03-22T14:24:31.488Z,87.44
2018-03-22T14:26:59.445Z,87.17
2018-03-22T14:29:27.382Z,86.30
2018-03-22T14:31:55.364Z,85.77
2018-03-22T14:34:23.558Z,85.67
2018-03-22T14:36:51.552Z,86.02
2018-03-22T14:39:19.518Z,83.51
2018-03-22T14:41:47.478Z,82.52
2018-03-22T14:44:15.392Z,82.52
2018-03-22T14:46:43.379Z,82.07
2018-03-22T14:49:11.310Z,82.28
2018-03-22T14:51:39.337Z,81.62
2018-03-22T14:54:07.283Z,82.56
2018-03-22T14:56:35.828Z,84.03
2018-03-22T14:59:03.730Z,84.11
2018-03-22T15:01:31.723Z,84.85
2018-03-22T15:03:59.633Z,85.02
2018-03-22T15:06:27.608Z,85.08
2018-03-22T15:08:55.526Z,85.96
2018-03-22T15:11:23.478Z,86.40
2018-03-22T15:13:51.410Z,86.67
2018-03-22T15:16:19.891Z,86.88
2018-03-22T15:18:47.811Z,86.58
2018-03-22T15:21:15.721Z,86.75
2018-03-22T15:23:43.666Z,86.51
2018-03-22T15:26:11.624Z,85.36
2018-03-22T15:28:39.535Z,86.00
2018-03-22T15:31:07.606Z,86.75
2018-03-22T15:33:35.541Z,86.45
2018-03-22T15:36:03.518Z,86.87
2018-03-22T15:38:31.455Z,86.08
2018-03-22T15:40:59.566Z,85.55
2018-03-22T15:43:27.764Z,85.54
2018-03-22T15:45:55.666Z,85.73
2018-03-22T15:48:23.621Z,85.68
2018-03-22T15:50:52.397Z,85.38
2018-03-22T15:53:20.323Z,84.95
2018-03-22T15:55:48.265Z,84.41
2018-03-22T15:58:16.228Z,84.61
2018-03-22T16:00:44.140Z,84.22
2018-03-22T16:03:12.099Z,84.67
2018-03-22T16:05:40.046Z,83.08
2018-03-22T16:08:07.974Z,84.11
2018-03-22T16:10:35.884Z,83.74
2018-03-22T16:13:03.832Z,84.13
2018-03-22T16:15:31.779Z,84.48
2018-03-22T16:17:59.723Z,84.36
2018-03-22T16:20:27.673Z,84.73
2018-03-22T16:22:55.585Z,83.77
2018-03-22T16:25:23.512Z,84.33
2018-03-22T16:27:51.459Z,85.59
2018-03-22T16:30:19.391Z,85.32
2018-03-22T16:32:47.433Z,85.56
2018-03-22T16:35:15.370Z,86.47
2018-03-22T16:37:43.403Z,86.90
2018-03-22T16:40:11.310Z,86.44
2018-03-22T16:42:39.308Z,87.62
2018-03-22T16:45:07.282Z,85.42
2018-03-22T16:47:35.313Z,85.87
2018-03-22T16:50:03.252Z,84.39
2018-03-22T16:52:31.191Z,83.98
2018-03-22T16:54:59.158Z,83.98
2018-03-22T16:57:27.081Z,83.53
2018-03-22T16:59:55.054Z,84.14
2018-03-22T17:02:23.915Z,83.41
2018-03-22T17:04:51.928Z,84.45
2018-03-22T17:07:19.866Z,84.96
2018-03-22T17:09:47.801Z,85.43
2018-03-22T17:12:15.809Z,88.96
2018-03-22T17:14:43.740Z,88.49
2018-03-22T17:17:11.918Z,88.88
2018-03-22T17:19:42.381Z,87.07
2018-03-22T17:22:10.431Z,87.48
2018-03-22T17:24:38.420Z,86.51
2018-03-22T17:27:06.594Z,86.68
2018-03-22T17:29:34.526Z,85.52
2018-03-22T17:32:02.670Z,85.82
2018-03-22T17:34:30.611Z,86.13
2018-03-22T17:36:58.698Z,86.62
2018-03-22T17:39:27.052Z,86.37
2018-03-22T17:41:55.132Z,86.22
2018-03-22T17:44:23.251Z,85.84
2018-03-22T17:46:51.416Z,86.67
2018-03-22T17:49:19.424Z,87.15
2018-03-22T17:51:47.354Z,86.37
2018-03-22T17:54:15.343Z,86.06
2018-03-22T17:56:43.284Z,86.25
2018-03-22T17:59:11.333Z,85.90
2018-03-22T18:01:39.257Z,86.44
2018-03-22T18:04:07.279Z,86.29
2018-03-22T18:06:35.256Z,86.12
2018-03-22T18:09:03.190Z,86.48
2018-03-22T18:11:31.145Z,86.19
2018-03-22T18:13:59.142Z,86.46
2018-03-22T18:16:27.115Z,86.59
2018-03-22T18:18:55.045Z,86.24
2018-03-22T18:21:23.016Z,85.81
2018-03-22T18:23:51.003Z,86.17
2018-03-22T18:26:18.938Z,86.02
2018-03-22T18:28:46.886Z,86.05
2018-03-22T18:31:14.929Z,86.64
2018-03-22T18:33:42.906Z,86.93
2018-03-22T18:36:10.988Z,87.77
2018-03-22T18:38:38.980Z,87.37
2018-03-22T18:41:07.019Z,86.72
2018-03-22T18:43:35.087Z,86.38
2018-03-22T18:46:03.176Z,84.91
2018-03-22T18:48:31.374Z,84.22
2018-03-22T18:51:01.333Z,83.99
2018-03-22T18:53:29.471Z,81.01
2018-03-22T18:55:57.461Z,82.03
2018-03-22T18:58:25.449Z,81.75
2018-03-22T19:00:54.424Z,81.83
2018-03-22T19:03:23.257Z,80.13
2018-03-22T19:05:51.205Z,79.77
2018-03-22T19:08:19.305Z,82.12
2018-03-22T19:10:51.166Z,80.44
2018-03-22T19:13:19.335Z,82.42
2018-03-22T19:15:47.430Z,82.98
2018-03-22T19:18:15.638Z,83.12
2018-03-22T19:20:43.634Z,83.53
2018-03-22T19:23:11.762Z,83.92
2018-03-22T19:25:39.779Z,83.78
2018-03-22T19:28:07.844Z,84.06
2018-03-22T19:30:35.796Z,84.23
2018-03-22T19:33:03.803Z,83.58
2018-03-22T19:35:32.201Z,84.55
2018-03-22T19:38:00.293Z,84.97
2018-03-22T19:40:28.208Z,85.09
2018-03-22T19:42:56.209Z,84.49
2018-03-22T19:45:24.143Z,83.45
2018-03-22T19:47:52.182Z,81.66
2018-03-22T19:50:20.121Z,81.76
2018-03-22T19:52:49.761Z,82.37
2018-03-22T19:55:18.132Z,82.71
2018-03-22T19:57:46.307Z,83.06
2018-03-22T20:00:14.623Z,83.39
2018-03-22T20:02:43.055Z,83.29
2018-03-22T20:05:11.855Z,84.07
2018-03-22T20:07:40.882Z,83.15
2018-03-22T20:10:08.816Z,83.12
2018-03-22T20:12:38.834Z,84.77
2018-03-22T20:15:07.404Z,83.55
2018-03-22T20:17:35.475Z,83.73
2018-03-22T20:20:03.432Z,84.03
2018-03-22T20:22:31.411Z,83.58
2018-03-22T20:24:59.987Z,83.37
2018-03-22T20:27:27.924Z,82.31
2018-03-22T20:29:55.899Z,80.67
2018-03-22T20:32:23.850Z,79.91
2018-03-22T20:34:51.832Z,78.50
2018-03-22T20:37:19.760Z,77.38
2018-03-22T20:39:48.083Z,76.18
2018-03-22T20:42:16.033Z,77.11
2018-03-22T20:44:44.062Z,76.24
2018-03-22T20:47:12.003Z,76.99
2018-03-22T20:49:39.991Z,77.09
2018-03-22T20:52:07.930Z,77.27
2018-03-22T20:54:35.931Z,76.12
2018-03-22T20:57:04.164Z,75.60
2018-03-22T20:59:32.120Z,75.29
2018-03-22T21:02:00.221Z,74.77
2018-03-22T21:04:28.222Z,77.19
2018-03-22T21:06:56.172Z,76.48
2018-03-22T21:09:24.161Z,76.12
2018-03-22T21:11:52.112Z,74.64
2018-03-22T21:14:20.105Z,73.90
2018-03-22T21:16:48.070Z,73.30
2018-03-22T21:19:16.017Z,74.59
2018-03-22T21:21:43.955Z,77.74
2018-03-22T21:24:11.901Z,79.89
2018-03-22T21:26:39.867Z,80.85
2018-03-22T21:29:07.815Z,77.53
2018-03-22T21:31:35.780Z,77.34
2018-03-22T21:34:03.714Z,77.16
2018-03-22T21:36:31.628Z,77.76
2018-03-22T21:39:00.152Z,79.91
2018-03-22T21:41:28.061Z,80.11
2018-03-22T21:44:08.313Z,81.76
2018-03-22T21:46:36.268Z,82.49
2018-03-22T21:49:04.199Z,82.75
2018-03-22T21:51:32.482Z,83.40
2018-03-22T21:54:00.434Z,82.96
2018-03-22T21:56:28.369Z,83.23
2018-03-22T21:58:56.724Z,83.39
2018-03-22T22:01:29.062Z,77.88
2018-03-22T22:03:57.142Z,80.78
2018-03-22T22:06:25.979Z,81.17
2018-03-22T22:08:53.934Z,82.24
2018-03-22T22:11:22.847Z,82.38
2018-03-22T22:13:51.210Z,83.35
2018-03-22T22:16:19.234Z,83.49
2018-03-22T22:18:47.179Z,83.72
2018-03-22T22:21:15.171Z,83.05
2018-03-22T22:23:43.457Z,83.36
2018-03-22T22:26:11.482Z,83.73
2018-03-22T22:28:39.446Z,83.87
2018-03-22T22:31:07.449Z,84.35
2018-03-22T22:33:35.385Z,84.74
2018-03-22T22:36:03.337Z,84.33
2018-03-22T22:38:31.315Z,84.36
2018-03-22T22:40:59.254Z,84.22
2018-03-22T22:43:27.178Z,84.82
2018-03-22T22:45:55.106Z,84.52
2018-03-22T22:48:23.042Z,84.38
2018-03-22T22:50:51.048Z,84.20
2018-03-22T22:53:18.967Z,84.49
2018-03-22T22:55:46.936Z,84.81
2018-03-22T22:58:14.861Z,84.99
2018-03-22T23:00:42.863Z,85.00
2018-03-22T23:03:10.789Z,85.16
2018-03-22T23:05:38.723Z,85.22
2018-03-22T23:08:06.645Z,85.14
2018-03-22T23:10:34.741Z,84.90
2018-03-22T23:13:03.051Z,84.48
2018-03-22T23:15:31.094Z,84.97
2018-03-22T23:17:59.046Z,84.87
2018-03-22T23:20:26.986Z,85.20
2018-03-22T23:22:54.961Z,85.52
2018-03-22T23:25:22.909Z,85.60
2018-03-22T23:27:51.334Z,85.42
2018-03-22T23:30:19.259Z,85.00
2018-03-22T23:32:47.212Z,84.97
2018-03-22T23:35:15.157Z,85.79
2018-03-22T23:37:43.146Z,85.69
2018-03-22T23:40:11.085Z,85.58
2018-03-22T23:42:39.087Z,85.35
2018-03-22T23:45:07.087Z,85.30
2018-03-22T23:47:36.665Z,85.65
2018-03-22T23:50:04.593Z,85.71
2018-03-22T23:52:32.532Z,85.71
2018-03-22T23:55:00.502Z,85.60
2018-03-22T23:57:28.421Z,85.95
2018-03-22T23:59:56.386Z,86.08
